Time;durP1;ratioP1;P1;durP2;ratioP2;P2;SDS_P1;SDS_P2;PMS_P1;PMS_P2;Temp;Humidity;BMP_temperature;BMP_pressure;BME280_temperature;BME280_humidity;BME280_pressure;Samples;Min_cycle;Max_cycle;Signal;HPM_P1;HPM_P2
2023/04/17 00:08:32;;;;;;;17.30;13.00;;;;;;;5.86;99.74;99807.62;434972;1257;140418;-68
2023/04/17 00:18:38;;;;;;;15.80;11.20;;;;;;;5.81;100.00;99806.77;435109;1259;139209;-69
2023/04/17 00:28:45;;;;;;;13.30;11.60;;;;;;;5.70;100.00;99811.57;434116;1257;139177;-69
2023/04/17 00:38:50;;;;;;;;;;;;;;;5.66;100.00;99810.16;434153;1257;140033;-66
2023/04/17 00:48:56;;;;;;;16.20;11.30;;;;;;;5.67;100.00;99810.65;434128;1259;125862;-67
2023/04/17 00:59:03;;;;;;;13.50;11.90;;;;;;;5.68;100.00;99818.77;434826;1259;140678;-69
2023/04/17 01:09:09;;;;;;;15.20;12.80;;;;;;;5.60;100.00;99821.67;434301;1259;140174;-69
2023/04/17 01:19:16;;;;;;;14.40;12.90;;;;;;;5.55;100.00;99823.96;434046;1257;138770;-67
2023/04/17 01:29:22;;;;;;;16.20;14.20;;;;;;;5.47;100.00;99822.19;434209;1259;139528;-67
2023/04/17 01:39:28;;;;;;;16.30;12.70;;;;;;;5.36;100.00;99817.91;433856;1259;140699;-68
2023/04/17 01:49:34;;;;;;;17.50;13.20;;;;;;;5.27;100.00;99813.08;434643;1260;140082;-68
2023/04/17 01:59:40;;;;;;;19.70;13.60;;;;;;;5.17;100.00;99811.88;434813;1258;139121;-69
2023/04/17 02:09:45;;;;;;;16.20;13.10;;;;;;;5.09;100.00;99817.56;434632;1259;140223;-69
2023/04/17 02:19:51;;;;;;;16.90;13.90;;;;;;;4.98;100.00;99821.98;434338;1259;140631;-69
2023/04/17 02:29:57;;;;;;;18.30;14.70;;;;;;;4.87;100.00;99827.91;434290;1259;140440;-68
2023/04/17 02:40:05;;;;;;;16.90;13.40;;;;;;;4.76;100.00;99836.44;433905;1260;140120;-68
2023/04/17 02:50:12;;;;;;;19.80;14.80;;;;;;;4.66;100.00;99842.54;434073;1259;140095;-68
2023/04/17 03:00:19;;;;;;;21.40;17.40;;;;;;;4.79;100.00;99839.98;434500;1257;138700;-69
2023/04/17 03:10:25;;;;;;;21.90;16.80;;;;;;;4.96;100.00;99847.01;433994;1258;140240;-69
2023/04/17 03:20:31;;;;;;;23.70;16.50;;;;;;;5.06;100.00;99859.34;434311;1259;139304;-68
2023/04/17 03:30:37;;;;;;;24.50;18.00;;;;;;;5.13;100.00;99856.44;434416;1258;138724;-69
2023/04/17 03:40:43;;;;;;;25.20;18.00;;;;;;;5.23;100.00;99863.38;433789;1260;138897;-68
2023/04/17 03:50:49;;;;;;;21.80;16.60;;;;;;;5.33;100.00;99868.02;436199;1257;141249;-67
2023/04/17 04:00:57;;;;;;;23.00;17.70;;;;;;;5.37;100.00;99874.47;434069;1257;139174;-68
2023/04/17 04:11:03;;;;;;;20.70;16.00;;;;;;;5.42;100.00;99887.68;433853;1260;141385;-69
2023/04/17 04:21:10;;;;;;;21.40;17.00;;;;;;;5.42;100.00;99888.17;433598;1260;139878;-68
2023/04/17 04:31:18;;;;;;;23.30;15.50;;;;;;;5.43;100.00;99887.45;434959;1260;140185;-68
2023/04/17 04:41:24;;;;;;;;;;;;;;;5.45;100.00;99896.42;433898;1259;139129;-69
2023/04/17 04:51:30;;;;;;;20.90;15.80;;;;;;;5.51;100.00;99897.92;434526;1259;125297;-69
2023/04/17 05:01:38;;;;;;;23.90;17.90;;;;;;;5.58;100.00;99900.98;435008;1258;138564;-70
2023/04/17 05:11:45;;;;;;;20.00;16.40;;;;;;;5.65;100.00;99907.48;435885;1260;139023;-69
2023/04/17 05:21:51;;;;;;;23.40;17.80;;;;;;;5.76;100.00;99907.58;434944;1259;138653;-68
2023/04/17 05:31:57;;;;;;;20.40;16.40;;;;;;;5.95;100.00;99905.46;434536;1257;138870;-68
2023/04/17 05:42:02;;;;;;;21.80;17.80;;;;;;;6.19;100.00;99914.06;434427;1257;138850;-70
2023/04/17 05:52:08;;;;;;;22.10;16.30;;;;;;;6.34;100.00;99916.27;434427;1258;138641;-70
2023/04/17 06:02:14;;;;;;;18.00;15.10;;;;;;;6.53;100.00;99928.02;434559;1259;140043;-70
2023/04/17 06:12:20;;;;;;;19.50;16.90;;;;;;;6.74;100.00;99929.90;435096;1259;138571;-68
2023/04/17 06:22:26;;;;;;;19.20;16.50;;;;;;;7.11;100.00;99942.74;434837;1255;142850;-67
2023/04/17 06:32:32;;;;;;;19.60;16.50;;;;;;;7.34;100.00;99945.44;434971;1256;139285;-69
2023/04/17 06:42:38;;;;;;;19.60;16.70;;;;;;;7.47;100.00;99948.65;434982;1258;139302;-69
2023/04/17 06:52:44;;;;;;;21.20;18.00;;;;;;;7.49;100.00;99956.61;434718;1258;138603;-70
2023/04/17 07:02:50;;;;;;;20.10;16.50;;;;;;;7.84;100.00;99951.66;435704;1259;139720;-69
2023/04/17 07:12:56;;;;;;;18.80;16.00;;;;;;;9.21;100.00;99947.61;435118;1259;155945;-70
2023/04/17 07:23:02;;;;;;;21.60;18.20;;;;;;;9.66;100.00;99956.77;435939;1256;140421;-71
2023/04/17 07:33:07;;;;;;;19.80;17.60;;;;;;;10.50;100.00;99966.08;436158;1255;139994;-69
2023/04/17 07:43:14;;;;;;;17.40;15.60;;;;;;;15.09;98.14;99965.71;436348;1256;139437;-70
2023/04/17 07:53:21;;;;;;;17.50;15.60;;;;;;;20.43;86.07;99964.67;436451;1253;138872;-70
2023/04/17 08:03:26;;;;;;;14.30;13.10;;;;;;;23.12;79.43;99961.75;436634;1253;139919;-69
2023/04/17 08:13:31;;;;;;;;;;;;;;;28.18;70.97;99952.13;436215;1254;139575;-68
2023/04/17 08:23:37;;;;;;;16.00;14.50;;;;;;;30.79;54.22;99959.89;435890;1254;124537;-70
2023/04/17 08:33:42;;;;;;;15.20;13.80;;;;;;;29.93;46.80;99969.27;436008;1256;138099;-71
2023/04/17 08:43:50;;;;;;;16.10;13.60;;;;;;;24.66;47.02;99969.83;436388;1256;139018;-69
2023/04/17 08:53:56;;;;;;;15.10;13.50;;;;;;;21.59;49.16;99971.77;436932;1253;139583;-68
2023/04/17 09:04:02;;;;;;;13.70;12.40;;;;;;;19.19;51.53;99971.23;436766;1255;138506;-69
2023/04/17 09:14:32;;;;;;;14.90;13.60;;;;;;;18.42;53.01;99985.96;435957;1254;138888;-70
2023/04/17 09:24:37;;;;;;;14.30;12.70;;;;;;;17.98;54.07;99988.23;436612;1255;137909;-69
2023/04/17 09:34:43;;;;;;;13.40;12.10;;;;;;;17.99;54.38;99996.30;436006;1251;139708;-70
2023/04/17 09:44:49;;;;;;;12.90;11.70;;;;;;;17.26;54.87;100006.05;436156;1256;139230;-69
2023/04/17 09:54:55;;;;;;;10.30;9.40;;;;;;;16.15;56.57;100004.95;436148;1255;138354;-69
2023/04/17 10:05:03;;;;;;;10.50;9.50;;;;;;;15.56;58.11;100001.95;436190;1255;138873;-69
2023/04/17 10:15:16;;;;;;;11.30;10.30;;;;;;;15.71;59.03;100001.48;436648;1255;138557;-69
2023/04/17 10:25:24;;;;;;;11.90;10.80;;;;;;;16.19;58.95;100000.95;438370;1253;140135;-68
2023/04/17 10:35:39;;;;;;;9.50;8.70;;;;;;;16.44;58.53;99983.36;436518;1253;139320;-68
2023/04/17 10:46:01;;;;;;;8.40;7.60;;;;;;;16.69;58.18;99981.14;436644;1253;138245;-71
2023/04/17 10:56:07;;;;;;;8.30;7.60;;;;;;;16.03;58.46;99982.55;436860;1253;138119;-70
2023/04/17 11:06:14;;;;;;;9.30;8.40;;;;;;;15.42;59.52;99978.23;436875;1252;137980;-70
2023/04/17 11:16:21;;;;;;;10.40;9.00;;;;;;;15.03;60.38;99980.29;436555;1256;139168;-69
2023/04/17 11:26:27;;;;;;;12.40;9.60;;;;;;;14.56;61.68;99987.65;436407;1253;139107;-68
2023/04/17 11:36:34;;;;;;;9.40;8.30;;;;;;;14.66;62.40;99987.77;436222;1253;137898;-69
2023/04/17 11:46:40;;;;;;;10.30;9.10;;;;;;;14.60;62.86;99995.41;436285;1256;139610;-69
2023/04/17 11:57:00;;;;;;;11.50;9.90;;;;;;;13.95;63.84;99998.19;436219;1253;138212;-69
2023/04/17 12:07:08;;;;;;;11.30;9.80;;;;;;;13.65;64.94;100001.36;436254;1254;138917;-69
2023/04/17 12:17:14;;;;;;;13.10;11.70;;;;;;;13.24;66.78;100002.55;436069;1253;139232;-69
2023/04/17 12:27:20;;;;;;;16.70;12.80;;;;;;;12.43;70.44;100025.65;435838;1254;140151;-67
2023/04/17 12:37:26;;;;;;;20.70;16.90;;;;;;;11.81;74.03;100026.00;435865;1255;139438;-67
2023/04/17 12:47:31;;;;;;;16.40;14.60;;;;;;;11.33;77.53;100032.04;436021;1254;139118;-68
2023/04/17 12:57:38;;;;;;;20.30;17.20;;;;;;;11.00;79.42;100035.45;436145;1253;140052;-68
2023/04/17 13:07:45;;;;;;;17.80;15.90;;;;;;;11.02;80.58;100030.21;435800;1253;140452;-67
2023/04/17 13:17:50;;;;;;;17.70;15.80;;;;;;;11.32;80.66;100020.06;435945;1254;139685;-66
2023/04/17 13:27:56;;;;;;;18.20;15.10;;;;;;;11.85;79.35;100020.35;435840;1254;139929;-67
2023/04/17 13:38:02;;;;;;;17.00;15.20;;;;;;;12.40;78.24;100017.04;436078;1255;139843;-67
2023/04/17 13:48:08;;;;;;;18.70;15.40;;;;;;;12.61;77.24;100012.59;436433;1255;139201;-69
2023/04/17 13:58:14;;;;;;;14.00;11.70;;;;;;;12.91;76.80;100004.27;436143;1253;140448;-68
2023/04/17 14:08:20;;;;;;;14.10;12.70;;;;;;;13.36;75.78;99996.17;436730;1253;140419;-67
2023/04/17 14:18:26;;;;;;;14.50;12.30;;;;;;;13.60;74.19;100004.73;435682;1254;139911;-68
2023/04/17 14:28:32;;;;;;;15.00;12.10;;;;;;;13.69;73.16;100002.15;436136;1256;141719;-71
2023/04/17 14:38:37;;;;;;;14.90;11.80;;;;;;;13.72;72.20;99998.09;435964;1252;139661;-69
2023/04/17 14:48:43;;;;;;;10.30;9.30;;;;;;;13.72;72.01;99987.86;436710;1254;139842;-70
2023/04/17 14:59:00;;;;;;;11.60;10.40;;;;;;;13.80;70.88;99985.17;435890;1254;139797;-70
2023/04/17 15:09:06;;;;;;;12.90;11.60;;;;;;;13.62;70.54;99980.30;435861;1253;139990;-69
2023/04/17 15:19:12;;;;;;;11.40;10.00;;;;;;;13.01;70.96;99986.70;435541;1253;139663;-69
2023/04/17 15:29:18;;;;;;;11.40;8.60;;;;;;;12.19;74.47;100008.92;435457;1252;138814;-70
2023/04/17 15:39:24;;;;;;;9.60;8.70;;;;;;;11.41;77.84;100014.76;436331;1253;140228;-69
2023/04/17 15:49:29;;;;;;;12.50;10.20;;;;;;;11.14;79.66;100014.77;435966;1253;140219;-69
2023/04/17 15:59:35;;;;;;;10.30;9.40;;;;;;;10.99;81.20;100018.48;436128;1253;139521;-70
2023/04/17 16:09:43;;;;;;;10.90;9.80;;;;;;;10.82;81.92;100022.08;436066;1253;140319;-70
2023/04/17 16:19:48;;;;;;;11.20;10.00;;;;;;;10.69;82.41;100021.95;436043;1256;138967;-68
2023/04/17 16:29:55;;;;;;;12.20;9.30;;;;;;;10.53;82.88;100024.93;435799;1253;139884;-69
2023/04/17 16:40:03;;;;;;;10.10;9.00;;;;;;;10.38;83.74;100021.39;437196;1255;141737;-68
2023/04/17 16:50:11;;;;;;;12.20;10.90;;;;;;;10.29;84.77;100026.41;436301;1256;138820;-69
2023/04/17 17:00:18;;;;;;;12.90;11.50;;;;;;;10.20;85.91;100029.53;436444;1253;139581;-69
2023/04/17 17:10:24;;;;;;;15.10;11.80;;;;;;;10.16;86.83;100039.05;436395;1253;140727;-71
2023/04/17 17:20:29;;;;;;;15.50;13.10;;;;;;;10.08;87.60;100041.37;435620;1254;139694;-70
2023/04/17 17:30:35;;;;;;;15.10;9.80;;;;;;;10.00;88.25;100044.45;435782;1256;139193;-69
2023/04/17 17:40:41;;;;;;;15.30;12.30;;;;;;;9.95;89.15;100051.69;436072;1256;139814;-69
2023/04/17 17:50:47;;;;;;;98.70;55.80;;;;;;;9.92;89.95;100066.93;436161;1256;139526;-68
2023/04/17 18:00:53;;;;;;;23.20;18.30;;;;;;;9.88;91.62;100069.92;436189;1254;138831;-64
2023/04/17 18:11:00;;;;;;;18.20;14.50;;;;;;;9.79;92.72;100077.90;435773;1253;139880;-65
2023/04/17 18:21:10;;;;;;;17.50;15.40;;;;;;;9.73;94.03;100091.17;435528;1256;139459;-64
2023/04/17 18:31:15;;;;;;;20.20;15.10;;;;;;;9.70;95.23;100096.61;435839;1256;141473;-64
2023/04/17 18:41:21;;;;;;;20.90;15.50;;;;;;;9.67;96.25;100103.55;436531;1254;140160;-64
2023/04/17 18:51:27;;;;;;;16.60;13.70;;;;;;;9.69;97.12;100109.39;436444;1251;139878;-64
2023/04/17 19:01:33;;;;;;;17.80;14.80;;;;;;;9.69;97.56;100108.88;436122;1255;141479;-63
2023/04/17 19:11:39;;;;;;;17.70;15.90;;;;;;;9.68;97.40;100114.33;435582;1251;163741;-64
2023/04/17 19:21:45;;;;;;;17.80;15.40;;;;;;;9.67;97.15;100119.45;436207;1256;138959;-65
2023/04/17 19:31:51;;;;;;;19.50;15.80;;;;;;;9.64;96.85;100126.58;436390;1251;140044;-65
2023/04/17 19:41:57;;;;;;;15.90;13.70;;;;;;;9.62;96.54;100128.96;436226;1255;138960;-63
2023/04/17 19:52:03;;;;;;;17.00;14.00;;;;;;;9.58;96.12;100132.34;436125;1255;139587;-65
2023/04/17 20:02:10;;;;;;;17.20;13.70;;;;;;;9.51;95.63;100133.87;436079;1256;141772;-64
2023/04/17 20:12:16;;;;;;;16.50;11.90;;;;;;;9.47;95.39;100132.02;436365;1256;141164;-64
2023/04/17 20:22:22;;;;;;;13.80;11.20;;;;;;;9.40;94.16;100145.79;435980;1256;139945;-65
2023/04/17 20:32:27;;;;;;;16.80;12.00;;;;;;;9.37;93.20;100145.58;436192;1256;139421;-64
2023/04/17 20:42:33;;;;;;;14.20;10.60;;;;;;;9.27;92.60;100144.16;436001;1254;138922;-64
2023/04/17 20:52:39;;;;;;;16.60;10.80;;;;;;;9.15;92.25;100145.67;436361;1256;139485;-64
2023/04/17 21:02:45;;;;;;;13.90;9.70;;;;;;;9.00;92.32;100151.60;436106;1251;139785;-64
2023/04/17 21:12:51;;;;;;;12.20;9.60;;;;;;;8.83;93.01;100154.33;436399;1256;139334;-63
2023/04/17 21:22:57;;;;;;;11.50;8.70;;;;;;;8.67;94.22;100159.24;436041;1256;140527;-64
2023/04/17 21:33:02;;;;;;;14.80;9.60;;;;;;;8.54;95.87;100168.21;436203;1251;138883;-65
2023/04/17 21:43:08;;;;;;;12.10;10.00;;;;;;;8.48;97.61;100164.45;436114;1256;140706;-64
2023/04/17 21:53:14;;;;;;;15.50;12.60;;;;;;;8.43;99.32;100168.02;435677;1255;140070;-64
2023/04/17 22:03:22;;;;;;;13.50;9.30;;;;;;;8.37;100.00;100162.67;436390;1253;141536;-64
2023/04/17 22:13:28;;;;;;;11.30;8.10;;;;;;;8.30;100.00;100168.08;435865;1256;139009;-63
2023/04/17 22:23:34;;;;;;;9.30;6.60;;;;;;;8.15;100.00;100167.89;436310;1257;139124;-64
2023/04/17 22:33:40;;;;;;;8.50;6.20;;;;;;;8.03;100.00;100170.30;436051;1257;139675;-64
2023/04/17 22:43:49;;;;;;;9.40;6.70;;;;;;;7.99;100.00;100170.48;436052;1257;139714;-65
2023/04/17 22:53:55;;;;;;;8.70;6.70;;;;;;;7.94;100.00;100169.80;436843;1257;139447;-63
2023/04/17 23:04:01;;;;;;;8.90;6.20;;;;;;;7.83;100.00;100168.89;436771;1256;139343;-65
2023/04/17 23:14:07;;;;;;;7.70;6.10;;;;;;;7.71;100.00;100164.18;437305;1255;139758;-63
2023/04/17 23:24:13;;;;;;;10.70;7.80;;;;;;;7.62;100.00;100155.88;436514;1255;139814;-63
2023/04/17 23:34:19;;;;;;;10.90;6.90;;;;;;;7.56;100.00;100154.16;436336;1256;139515;-63
2023/04/17 23:44:24;;;;;;;7.60;6.80;;;;;;;7.53;100.00;100150.13;436549;1255;140046;-63
2023/04/17 23:54:30;;;;;;;11.10;7.70;;;;;;;7.48;100.00;100149.31;436494;1252;139756;-64
